San Francisco, California
Traffic Map
Current Weather Conditions
San Francisco, California
Few Clouds
Few Clouds
60°
Feels Like: 60°
Wind Chill: 60° Ceiling: Unl
Heat Index: 60° Visibility: 10mi
Dew Point: 43° Wind: 25mph
Humidity: 53% Direction: 270° (W)
Pressure: 30.14in Gusts: 0mph
Raw Report DataKSFO 301856Z 27022KT 10SM FEW041 16/06 A3014 RMK AO2 PK WND 28026/1839 SLP205 T01560061
Traffic Incident Summary
Active as of:
Severity:
Category:
InformationThere was an issue retrieving the traffic information for this location. Please try a different location or try again shortly.
Advertisements
Track Severe Weather on mobile